臺北飛航情報區 - 海峽席

METAR RCTP 160830Z 03012KT 9999 FEW010 SCT013 21/17 Q1012 NOSIG RMK A2991(H)=

站台狀態:Online
最後更新:2021-04-16 16:30:03